sensor_id;sensor_type;location;lat;lon;timestamp;pressure;altitude;pressure_sealevel;temperature;humidity
57248;BME280;55809;46.618;10.764;2024-01-07T00:02:07;91621.81;;;3.82;100.00
57248;BME280;55809;46.618;10.764;2024-01-07T00:04:34;91630.97;;;3.81;100.00
57248;BME280;55809;46.618;10.764;2024-01-07T00:07:01;91588.34;;;3.63;100.00
57248;BME280;55809;46.618;10.764;2024-01-07T00:09:28;91618.00;;;3.83;100.00
57248;BME280;55809;46.618;10.764;2024-01-07T00:11:56;91627.13;;;3.86;100.00
57248;BME280;55809;46.618;10.764;2024-01-07T00:14:25;91623.34;;;3.83;100.00
57248;BME280;55809;46.618;10.764;2024-01-07T00:16:52;91623.31;;;3.87;100.00
57248;BME280;55809;46.618;10.764;2024-01-07T00:19:19;91628.66;;;3.83;100.00
57248;BME280;55809;46.618;10.764;2024-01-07T00:21:45;91633.59;;;3.85;100.00
57248;BME280;55809;46.618;10.764;2024-01-07T00:24:12;91628.69;;;3.80;100.00
57248;BME280;55809;46.618;10.764;2024-01-07T00:26:39;91624.09;;;3.80;100.00
57248;BME280;55809;46.618;10.764;2024-01-07T00:29:07;91624.09;;;3.80;100.00
57248;BME280;55809;46.618;10.764;2024-01-07T00:31:34;91627.94;;;3.79;100.00
57248;BME280;55809;46.618;10.764;2024-01-07T00:34:01;91628.31;;;3.78;100.00
57248;BME280;55809;46.618;10.764;2024-01-07T00:36:28;91627.19;;;3.79;100.00
57248;BME280;55809;46.618;10.764;2024-01-07T00:38:55;91620.69;;;3.76;100.00
57248;BME280;55809;46.618;10.764;2024-01-07T00:41:22;91592.56;;;3.53;100.00
57248;BME280;55809;46.618;10.764;2024-01-07T00:43:50;91629.47;;;3.76;100.00
57248;BME280;55809;46.618;10.764;2024-01-07T00:46:18;91634.78;;;3.80;100.00
57248;BME280;55809;46.618;10.764;2024-01-07T00:48:45;91637.09;;;3.71;100.00
57248;BME280;55809;46.618;10.764;2024-01-07T00:51:11;91615.41;;;3.69;100.00
57248;BME280;55809;46.618;10.764;2024-01-07T00:53:38;91611.94;;;3.65;100.00
57248;BME280;55809;46.618;10.764;2024-01-07T00:56:06;91635.91;;;3.83;100.00
57248;BME280;55809;46.618;10.764;2024-01-07T00:58:33;91621.09;;;3.67;100.00
57248;BME280;55809;46.618;10.764;2024-01-07T01:01:00;91631.03;;;3.63;100.00
57248;BME280;55809;46.618;10.764;2024-01-07T01:03:28;91648.16;;;3.73;100.00
57248;BME280;55809;46.618;10.764;2024-01-07T01:05:55;91653.06;;;3.78;100.00
57248;BME280;55809;46.618;10.764;2024-01-07T01:08:22;91656.53;;;3.79;100.00
57248;BME280;55809;46.618;10.764;2024-01-07T01:10:49;91658.44;;;3.74;100.00
57248;BME280;55809;46.618;10.764;2024-01-07T01:13:16;91642.44;;;3.71;100.00
57248;BME280;55809;46.618;10.764;2024-01-07T01:15:43;91658.81;;;3.80;100.00
57248;BME280;55809;46.618;10.764;2024-01-07T01:18:10;91665.63;;;3.85;100.00
57248;BME280;55809;46.618;10.764;2024-01-07T01:20:38;91664.16;;;3.76;100.00
57248;BME280;55809;46.618;10.764;2024-01-07T01:23:05;91672.53;;;3.82;100.00
57248;BME280;55809;46.618;10.764;2024-01-07T01:25:32;91672.53;;;3.79;100.00
57248;BME280;55809;46.618;10.764;2024-01-07T01:28:00;91665.28;;;3.83;100.00
57248;BME280;55809;46.618;10.764;2024-01-07T01:30:27;91662.19;;;3.88;100.00
57248;BME280;55809;46.618;10.764;2024-01-07T01:32:57;91667.56;;;3.77;100.00
57248;BME280;55809;46.618;10.764;2024-01-07T01:35:24;91672.16;;;3.76;100.00
57248;BME280;55809;46.618;10.764;2024-01-07T01:37:52;91665.69;;;3.70;100.00
57248;BME280;55809;46.618;10.764;2024-01-07T01:40:19;91674.06;;;3.76;100.00
57248;BME280;55809;46.618;10.764;2024-01-07T01:42:46;91675.97;;;3.79;100.00
57248;BME280;55809;46.618;10.764;2024-01-07T01:45:14;91675.22;;;3.79;100.00
57248;BME280;55809;46.618;10.764;2024-01-07T01:47:40;91675.97;;;3.79;100.00
57248;BME280;55809;46.618;10.764;2024-01-07T01:50:08;91668.31;;;3.85;100.00
57248;BME280;55809;46.618;10.764;2024-01-07T01:52:36;91672.13;;;3.84;100.00
57248;BME280;55809;46.618;10.764;2024-01-07T01:55:05;91673.66;;;3.81;100.00
57248;BME280;55809;46.618;10.764;2024-01-07T01:57:33;91667.19;;;3.82;100.00
57248;BME280;55809;46.618;10.764;2024-01-07T02:00:02;91670.66;;;3.75;100.00
57248;BME280;55809;46.618;10.764;2024-01-07T02:02:30;91671.41;;;3.72;100.00
57248;BME280;55809;46.618;10.764;2024-01-07T02:04:59;91677.09;;;3.74;100.00
57248;BME280;55809;46.618;10.764;2024-01-07T02:07:26;91678.25;;;3.73;100.00
57248;BME280;55809;46.618;10.764;2024-01-07T02:09:54;91668.78;;;3.65;100.00
57248;BME280;55809;46.618;10.764;2024-01-07T02:12:23;91674.44;;;3.78;100.00
57248;BME280;55809;46.618;10.764;2024-01-07T02:14:49;91680.16;;;3.76;100.00
57248;BME280;55809;46.618;10.764;2024-01-07T02:17:18;91685.91;;;3.68;100.00
57248;BME280;55809;46.618;10.764;2024-01-07T02:19:46;91678.28;;;3.66;100.00
57248;BME280;55809;46.618;10.764;2024-01-07T02:22:13;91681.69;;;3.74;100.00
57248;BME280;55809;46.618;10.764;2024-01-07T02:24:41;91679.00;;;3.81;100.00
57248;BME280;55809;46.618;10.764;2024-01-07T02:27:08;91679.03;;;3.74;100.00
57248;BME280;55809;46.618;10.764;2024-01-07T02:29:35;91689.31;;;3.79;100.00
57248;BME280;55809;46.618;10.764;2024-01-07T02:32:02;91678.25;;;3.77;100.00
57248;BME280;55809;46.618;10.764;2024-01-07T02:34:29;91679.44;;;3.69;100.00
57248;BME280;55809;46.618;10.764;2024-01-07T02:36:56;91685.50;;;3.73;100.00
57248;BME280;55809;46.618;10.764;2024-01-07T02:39:22;91685.53;;;3.69;100.00
57248;BME280;55809;46.618;10.764;2024-01-07T02:41:51;91681.31;;;3.68;100.00
57248;BME280;55809;46.618;10.764;2024-01-07T02:44:18;91674.84;;;3.69;100.00
57248;BME280;55809;46.618;10.764;2024-01-07T02:46:44;91673.66;;;3.78;100.00
57248;BME280;55809;46.618;10.764;2024-01-07T02:49:12;91674.09;;;3.72;100.00
57248;BME280;55809;46.618;10.764;2024-01-07T02:51:39;91674.09;;;3.69;100.00
57248;BME280;55809;46.618;10.764;2024-01-07T02:54:06;91655.03;;;3.63;100.00
57248;BME280;55809;46.618;10.764;2024-01-07T02:56:33;91668.34;;;3.78;100.00
57248;BME280;55809;46.618;10.764;2024-01-07T02:59:01;91671.75;;;3.82;100.00
57248;BME280;55809;46.618;10.764;2024-01-07T03:01:28;91653.16;;;3.60;100.00
57248;BME280;55809;46.618;10.764;2024-01-07T03:03:54;91666.44;;;3.74;100.00
57248;BME280;55809;46.618;10.764;2024-01-07T03:06:21;91666.84;;;3.73;100.00
57248;BME280;55809;46.618;10.764;2024-01-07T03:08:48;91656.13;;;3.80;100.00
57248;BME280;55809;46.618;10.764;2024-01-07T03:11:16;91667.59;;;3.73;100.00
57248;BME280;55809;46.618;10.764;2024-01-07T03:13:42;91669.88;;;3.68;100.00
57248;BME280;55809;46.618;10.764;2024-01-07T03:16:20;91666.47;;;3.60;100.00
57248;BME280;55809;46.618;10.764;2024-01-07T03:18:47;91659.97;;;3.75;100.00
57248;BME280;55809;46.618;10.764;2024-01-07T03:21:17;91671.00;;;3.78;100.00
57248;BME280;55809;46.618;10.764;2024-01-07T03:23:45;91666.84;;;3.69;100.00
57248;BME280;55809;46.618;10.764;2024-01-07T03:26:12;91656.91;;;3.73;100.00
57248;BME280;55809;46.618;10.764;2024-01-07T03:28:39;91669.88;;;3.71;100.00
57248;BME280;55809;46.618;10.764;2024-01-07T03:31:08;91674.09;;;3.69;100.00
57248;BME280;55809;46.618;10.764;2024-01-07T03:33:36;91667.59;;;3.73;100.00
57248;BME280;55809;46.618;10.764;2024-01-07T03:36:06;91664.16;;;3.76;100.00
57248;BME280;55809;46.618;10.764;2024-01-07T03:38:33;91664.16;;;3.73;100.00
57248;BME280;55809;46.618;10.764;2024-01-07T03:41:00;91661.88;;;3.64;100.00
57248;BME280;55809;46.618;10.764;2024-01-07T03:43:27;91663.41;;;3.69;100.00
57248;BME280;55809;46.618;10.764;2024-01-07T03:45:54;91665.66;;;3.78;100.00
57248;BME280;55809;46.618;10.764;2024-01-07T03:48:21;91661.47;;;3.76;100.00
57248;BME280;55809;46.618;10.764;2024-01-07T03:50:49;91663.75;;;3.74;100.00
57248;BME280;55809;46.618;10.764;2024-01-07T03:53:16;91661.50;;;3.73;100.00
57248;BME280;55809;46.618;10.764;2024-01-07T03:55:44;91655.41;;;3.72;100.00
57248;BME280;55809;46.618;10.764;2024-01-07T03:58:10;91659.59;;;3.66;100.00
57248;BME280;55809;46.618;10.764;2024-01-07T04:00:37;91659.59;;;3.70;100.00
57248;BME280;55809;46.618;10.764;2024-01-07T04:03:04;91664.22;;;3.59;100.00
57248;BME280;55809;46.618;10.764;2024-01-07T04:05:31;91661.53;;;3.55;100.00
57248;BME280;55809;46.618;10.764;2024-01-07T04:08:01;91655.81;;;3.60;100.00
57248;BME280;55809;46.618;10.764;2024-01-07T04:10:28;91647.41;;;3.58;100.00
57248;BME280;55809;46.618;10.764;2024-01-07T04:12:54;91641.72;;;3.60;100.00
57248;BME280;55809;46.618;10.764;2024-01-07T04:15:21;91613.97;;;3.39;100.00
57248;BME280;55809;46.618;10.764;2024-01-07T04:17:48;91645.88;;;3.64;100.00
57248;BME280;55809;46.618;10.764;2024-01-07T04:20:15;91645.16;;;3.53;100.00
57248;BME280;55809;46.618;10.764;2024-01-07T04:22:42;91649.34;;;3.54;100.00
57248;BME280;55809;46.618;10.764;2024-01-07T04:25:10;91650.50;;;3.49;100.00
57248;BME280;55809;46.618;10.764;2024-01-07T04:27:38;91646.31;;;3.45;100.00
57248;BME280;55809;46.618;10.764;2024-01-07T04:30:05;91645.94;;;3.50;100.00
57248;BME280;55809;46.618;10.764;2024-01-07T04:32:32;91646.31;;;3.45;100.00
57248;BME280;55809;46.618;10.764;2024-01-07T04:34:59;91637.56;;;3.44;100.00
57248;BME280;55809;46.618;10.764;2024-01-07T04:37:26;91642.13;;;3.47;100.00
57248;BME280;55809;46.618;10.764;2024-01-07T04:39:53;91648.97;;;3.48;100.00
57248;BME280;55809;46.618;10.764;2024-01-07T04:42:21;91643.28;;;3.46;100.00
57248;BME280;55809;46.618;10.764;2024-01-07T04:44:48;91650.53;;;3.42;100.00
57248;BME280;55809;46.618;10.764;2024-01-07T04:47:25;91641.38;;;3.47;100.00
57248;BME280;55809;46.618;10.764;2024-01-07T04:49:53;91647.09;;;3.38;100.00
57248;BME280;55809;46.618;10.764;2024-01-07T04:52:20;91600.69;;;3.03;100.00
57248;BME280;55809;46.618;10.764;2024-01-07T04:54:47;91650.16;;;3.40;100.00
57248;BME280;55809;46.618;10.764;2024-01-07T04:57:14;91643.63;;;3.52;100.00
57248;BME280;55809;46.618;10.764;2024-01-07T04:59:43;91640.22;;;3.44;100.00
57248;BME280;55809;46.618;10.764;2024-01-07T05:02:10;91642.88;;;3.44;100.00
57248;BME280;55809;46.618;10.764;2024-01-07T05:04:37;91648.22;;;3.41;100.00
57248;BME280;55809;46.618;10.764;2024-01-07T05:07:04;91646.28;;;3.52;100.00
57248;BME280;55809;46.618;10.764;2024-01-07T05:09:32;91647.81;;;3.57;100.00
57248;BME280;55809;46.618;10.764;2024-01-07T05:11:59;91648.22;;;3.41;100.00
57248;BME280;55809;46.618;10.764;2024-01-07T05:14:26;91647.88;;;3.42;100.00
57248;BME280;55809;46.618;10.764;2024-01-07T05:16:54;91647.88;;;3.42;100.00
57248;BME280;55809;46.618;10.764;2024-01-07T05:19:21;91650.13;;;3.47;100.00
57248;BME280;55809;46.618;10.764;2024-01-07T05:21:48;91648.63;;;3.39;100.00
57248;BME280;55809;46.618;10.764;2024-01-07T05:24:15;91649.00;;;3.38;100.00
57248;BME280;55809;46.618;10.764;2024-01-07T05:26:43;91656.22;;;3.48;100.00
57248;BME280;55809;46.618;10.764;2024-01-07T05:29:10;91644.03;;;3.47;100.00
57248;BME280;55809;46.618;10.764;2024-01-07T05:31:38;91653.91;;;3.57;100.00
57248;BME280;55809;46.618;10.764;2024-01-07T05:34:06;91660.41;;;3.56;100.00
57248;BME280;55809;46.618;10.764;2024-01-07T05:36:33;91665.75;;;3.56;100.00
57248;BME280;55809;46.618;10.764;2024-01-07T05:39:00;91665.72;;;3.60;100.00
57248;BME280;55809;46.618;10.764;2024-01-07T05:41:27;91653.13;;;3.64;100.00
57248;BME280;55809;46.618;10.764;2024-01-07T05:43:54;91656.97;;;3.56;100.00
57248;BME280;55809;46.618;10.764;2024-01-07T05:46:20;91658.88;;;3.59;100.00
57248;BME280;55809;46.618;10.764;2024-01-07T05:48:48;91660.00;;;3.58;100.00
57248;BME280;55809;46.618;10.764;2024-01-07T05:51:17;91658.84;;;3.55;100.00
57248;BME280;55809;46.618;10.764;2024-01-07T05:53:45;91607.94;;;3.10;100.00
57248;BME280;55809;46.618;10.764;2024-01-07T05:56:12;91666.47;;;3.60;100.00
57248;BME280;55809;46.618;10.764;2024-01-07T05:58:39;91675.25;;;3.53;100.00
57248;BME280;55809;46.618;10.764;2024-01-07T06:01:07;91666.09;;;3.58;100.00
57248;BME280;55809;46.618;10.764;2024-01-07T06:03:34;91669.91;;;3.61;100.00
57248;BME280;55809;46.618;10.764;2024-01-07T06:06:01;91671.81;;;3.60;100.00
57248;BME280;55809;46.618;10.764;2024-01-07T06:08:29;91682.50;;;3.60;100.00
57248;BME280;55809;46.618;10.764;2024-01-07T06:10:56;91643.28;;;3.43;100.00
57248;BME280;55809;46.618;10.764;2024-01-07T06:13:23;91691.63;;;3.63;100.00
57248;BME280;55809;46.618;10.764;2024-01-07T06:15:50;91683.22;;;3.64;100.00
57248;BME280;55809;46.618;10.764;2024-01-07T06:18:17;91688.19;;;3.69;100.00
57248;BME280;55809;46.618;10.764;2024-01-07T06:20:44;91693.16;;;3.60;100.00
57248;BME280;55809;46.618;10.764;2024-01-07T06:23:12;91693.13;;;3.71;100.00
57248;BME280;55809;46.618;10.764;2024-01-07T06:25:40;91693.91;;;3.64;100.00
57248;BME280;55809;46.618;10.764;2024-01-07T06:28:08;91704.97;;;3.66;100.00
57248;BME280;55809;46.618;10.764;2024-01-07T06:30:36;91706.88;;;3.66;100.00
57248;BME280;55809;46.618;10.764;2024-01-07T06:33:05;91700.75;;;3.72;100.00
57248;BME280;55809;46.618;10.764;2024-01-07T06:35:33;91709.88;;;3.75;100.00
57248;BME280;55809;46.618;10.764;2024-01-07T06:38:00;91716.03;;;3.72;100.00
57248;BME280;55809;46.618;10.764;2024-01-07T06:40:29;91717.91;;;3.71;100.00
57248;BME280;55809;46.618;10.764;2024-01-07T06:43:02;91715.25;;;3.79;100.00
57248;BME280;55809;46.618;10.764;2024-01-07T06:45:29;91713.69;;;3.81;100.00
57248;BME280;55809;46.618;10.764;2024-01-07T06:47:55;91723.63;;;3.70;100.00
57248;BME280;55809;46.618;10.764;2024-01-07T06:50:23;91728.56;;;3.71;100.00
57248;BME280;55809;46.618;10.764;2024-01-07T06:52:50;91729.72;;;3.78;100.00
57248;BME280;55809;46.618;10.764;2024-01-07T06:55:18;91736.22;;;3.73;100.00
57248;BME280;55809;46.618;10.764;2024-01-07T06:57:55;91716.41;;;3.60;100.00
57248;BME280;55809;46.618;10.764;2024-01-07T07:00:24;91738.50;;;3.71;100.00
57248;BME280;55809;46.618;10.764;2024-01-07T07:02:52;91744.59;;;3.71;100.00
57248;BME280;55809;46.618;10.764;2024-01-07T07:05:20;91739.63;;;3.73;100.00
57248;BME280;55809;46.618;10.764;2024-01-07T07:07:47;91740.78;;;3.76;100.00
57248;BME280;55809;46.618;10.764;2024-01-07T07:10:18;91740.03;;;3.75;100.00
57248;BME280;55809;46.618;10.764;2024-01-07T07:12:46;91743.44;;;3.80;100.00
57248;BME280;55809;46.618;10.764;2024-01-07T07:15:14;91752.59;;;3.75;100.00
57248;BME280;55809;46.618;10.764;2024-01-07T07:17:45;91746.88;;;3.80;100.00
57248;BME280;55809;46.618;10.764;2024-01-07T07:20:12;91743.06;;;3.70;100.00
57248;BME280;55809;46.618;10.764;2024-01-07T07:22:41;91756.81;;;3.72;100.00
57248;BME280;55809;46.618;10.764;2024-01-07T07:25:08;91756.03;;;3.75;100.00
57248;BME280;55809;46.618;10.764;2024-01-07T07:27:36;91726.34;;;3.59;100.00
57248;BME280;55809;46.618;10.764;2024-01-07T07:30:07;91758.69;;;3.79;100.00
57248;BME280;55809;46.618;10.764;2024-01-07T07:32:35;91761.38;;;3.75;100.00
57248;BME280;55809;46.618;10.764;2024-01-07T07:35:07;91764.81;;;3.69;100.00
57248;BME280;55809;46.618;10.764;2024-01-07T07:37:35;91754.50;;;3.67;100.00
57248;BME280;55809;46.618;10.764;2024-01-07T07:40:02;91765.94;;;3.71;100.00
57248;BME280;55809;46.618;10.764;2024-01-07T07:42:29;91762.88;;;3.80;100.00
57248;BME280;55809;46.618;10.764;2024-01-07T07:44:58;91764.41;;;3.88;100.00
57248;BME280;55809;46.618;10.764;2024-01-07T07:47:28;91773.53;;;3.84;100.00
57248;BME280;55809;46.618;10.764;2024-01-07T07:49:56;91763.63;;;3.81;100.00
57248;BME280;55809;46.618;10.764;2024-01-07T07:52:28;91771.66;;;3.81;100.00
57248;BME280;55809;46.618;10.764;2024-01-07T07:54:56;91777.38;;;3.83;100.00
57248;BME280;55809;46.618;10.764;2024-01-07T07:57:26;91776.63;;;3.82;100.00
57248;BME280;55809;46.618;10.764;2024-01-07T07:59:55;91776.22;;;3.80;100.00
57248;BME280;55809;46.618;10.764;2024-01-07T08:02:32;91767.44;;;3.87;100.00
57248;BME280;55809;46.618;10.764;2024-01-07T08:05:00;91774.31;;;3.84;100.00
57248;BME280;55809;46.618;10.764;2024-01-07T08:07:30;91777.75;;;3.92;100.00
57248;BME280;55809;46.618;10.764;2024-01-07T08:09:58;91774.28;;;3.91;100.00
57248;BME280;55809;46.618;10.764;2024-01-07T08:12:29;91774.31;;;3.95;100.00
57248;BME280;55809;46.618;10.764;2024-01-07T08:14:57;91783.44;;;3.94;100.00
57248;BME280;55809;46.618;10.764;2024-01-07T08:17:25;91776.19;;;3.98;100.00
57248;BME280;55809;46.618;10.764;2024-01-07T08:19:53;91776.97;;;4.02;100.00
57248;BME280;55809;46.618;10.764;2024-01-07T08:22:20;91789.13;;;4.07;100.00
57248;BME280;55809;46.618;10.764;2024-01-07T08:24:50;91788.75;;;4.01;100.00
57248;BME280;55809;46.618;10.764;2024-01-07T08:27:18;91790.25;;;4.20;100.00
57248;BME280;55809;46.618;10.764;2024-01-07T08:29:45;91786.44;;;4.17;100.00
57248;BME280;55809;46.618;10.764;2024-01-07T08:32:13;91791.41;;;4.19;100.00
57248;BME280;55809;46.618;10.764;2024-01-07T08:34:42;91784.94;;;4.09;100.00
57248;BME280;55809;46.618;10.764;2024-01-07T08:37:08;91746.84;;;3.91;100.00
57248;BME280;55809;46.618;10.764;2024-01-07T08:39:35;91784.19;;;4.12;100.00
57248;BME280;55809;46.618;10.764;2024-01-07T08:42:05;91790.25;;;4.16;100.00
57248;BME280;55809;46.618;10.764;2024-01-07T08:44:32;91709.16;;;3.67;100.00
57248;BME280;55809;46.618;10.764;2024-01-07T08:46:59;91787.94;;;4.26;100.00
57248;BME280;55809;46.618;10.764;2024-01-07T08:49:28;91789.09;;;4.21;100.00
57248;BME280;55809;46.618;10.764;2024-01-07T08:51:56;91792.50;;;4.36;100.00
57248;BME280;55809;46.618;10.764;2024-01-07T08:54:23;91804.72;;;4.30;100.00
57248;BME280;55809;46.618;10.764;2024-01-07T08:56:51;91800.50;;;4.39;100.00
57248;BME280;55809;46.618;10.764;2024-01-07T08:59:21;91795.16;;;4.39;100.00
57248;BME280;55809;46.618;10.764;2024-01-07T09:01:49;91794.75;;;4.48;100.00
57248;BME280;55809;46.618;10.764;2024-01-07T09:04:17;91800.88;;;4.41;100.00
57248;BME280;55809;46.618;10.764;2024-01-07T09:06:45;91796.66;;;4.44;100.00
57248;BME280;55809;46.618;10.764;2024-01-07T09:09:13;91790.16;;;4.52;100.00
57248;BME280;55809;46.618;10.764;2024-01-07T09:11:41;91799.69;;;4.50;100.00
57248;BME280;55809;46.618;10.764;2024-01-07T09:14:09;91806.91;;;4.60;100.00
57248;BME280;55809;46.618;10.764;2024-01-07T09:16:37;91804.63;;;4.62;100.00
57248;BME280;55809;46.618;10.764;2024-01-07T09:19:05;91803.81;;;4.68;100.00
57248;BME280;55809;46.618;10.764;2024-01-07T09:21:34;91812.63;;;4.65;100.00
57248;BME280;55809;46.618;10.764;2024-01-07T09:24:03;91815.28;;;4.69;100.00
57248;BME280;55809;46.618;10.764;2024-01-07T09:26:37;91807.22;;;4.76;100.00
57248;BME280;55809;46.618;10.764;2024-01-07T09:29:05;91799.94;;;4.80;100.00
57248;BME280;55809;46.618;10.764;2024-01-07T09:31:38;91809.47;;;4.85;100.00
57248;BME280;55809;46.618;10.764;2024-01-07T09:34:07;91816.75;;;4.84;100.00
57248;BME280;55809;46.618;10.764;2024-01-07T09:36:35;91818.44;;;5.27;100.00
57248;BME280;55809;46.618;10.764;2024-01-07T09:39:04;91816.50;;;5.31;100.00
57248;BME280;55809;46.618;10.764;2024-01-07T09:41:34;91818.84;;;5.22;100.00
57248;BME280;55809;46.618;10.764;2024-01-07T09:44:02;91807.00;;;5.19;100.00
57248;BME280;55809;46.618;10.764;2024-01-07T09:46:32;91816.13;;;5.25;100.00
57248;BME280;55809;46.618;10.764;2024-01-07T09:49:03;91819.56;;;5.26;100.00
57248;BME280;55809;46.618;10.764;2024-01-07T09:51:35;91819.94;;;5.28;100.00
57248;BME280;55809;46.618;10.764;2024-01-07T09:54:03;91821.81;;;5.34;100.00
57248;BME280;55809;46.618;10.764;2024-01-07T09:56:38;91816.88;;;5.29;100.00
57248;BME280;55809;46.618;10.764;2024-01-07T09:59:06;91802.34;;;5.34;100.00
57248;BME280;55809;46.618;10.764;2024-01-07T10:01:35;91813.75;;;5.41;100.00
57248;BME280;55809;46.618;10.764;2024-01-07T10:04:04;91809.59;;;5.33;100.00
57248;BME280;55809;46.618;10.764;2024-01-07T10:06:32;91810.72;;;5.36;100.00
57248;BME280;55809;46.618;10.764;2024-01-07T10:09:00;91812.25;;;5.37;100.00
57248;BME280;55809;46.618;10.764;2024-01-07T10:11:28;91817.59;;;5.37;100.00
57248;BME280;55809;46.618;10.764;2024-01-07T10:13:56;91811.84;;;5.38;100.00
57248;BME280;55809;46.618;10.764;2024-01-07T10:16:24;91796.88;;;5.48;100.00
57248;BME280;55809;46.618;10.764;2024-01-07T10:18:52;91804.53;;;5.50;100.00
57248;BME280;55809;46.618;10.764;2024-01-07T10:21:21;91813.31;;;5.50;100.00
57248;BME280;55809;46.618;10.764;2024-01-07T10:23:49;91795.72;;;5.49;100.00
57248;BME280;55809;46.618;10.764;2024-01-07T10:26:20;91802.59;;;5.50;100.00
57248;BME280;55809;46.618;10.764;2024-01-07T10:28:49;91798.38;;;5.53;100.00
57248;BME280;55809;46.618;10.764;2024-01-07T10:31:17;91793.44;;;5.48;100.00
57248;BME280;55809;46.618;10.764;2024-01-07T10:33:46;91774.03;;;5.33;100.00
57248;BME280;55809;46.618;10.764;2024-01-07T10:36:16;91798.00;;;5.51;100.00
57248;BME280;55809;46.618;10.764;2024-01-07T10:38:46;91789.88;;;5.61;100.00
57248;BME280;55809;46.618;10.764;2024-01-07T10:41:19;91791.84;;;5.57;100.00
57248;BME280;55809;46.618;10.764;2024-01-07T10:43:48;91793.41;;;5.51;100.00
57248;BME280;55809;46.618;10.764;2024-01-07T10:46:24;91790.69;;;5.55;100.00
57248;BME280;55809;46.618;10.764;2024-01-07T10:49:00;91789.56;;;5.52;100.00
57248;BME280;55809;46.618;10.764;2024-01-07T10:51:35;91792.31;;;5.41;100.00
57248;BME280;55809;46.618;10.764;2024-01-07T10:54:04;91787.00;;;5.38;100.00
57248;BME280;55809;46.618;10.764;2024-01-07T10:56:39;91788.50;;;5.43;100.00
57248;BME280;55809;46.618;10.764;2024-01-07T10:59:10;91789.28;;;5.43;100.00
57248;BME280;55809;46.618;10.764;2024-01-07T11:01:41;91788.84;;;5.48;100.00
57248;BME280;55809;46.618;10.764;2024-01-07T11:04:15;91725.75;;;4.99;100.00
57248;BME280;55809;46.618;10.764;2024-01-07T11:06:51;91780.44;;;5.46;100.00
57248;BME280;55809;46.618;10.764;2024-01-07T11:09:30;91779.34;;;5.40;100.00
57248;BME280;55809;46.618;10.764;2024-01-07T11:12:03;91778.22;;;5.37;100.00
57248;BME280;55809;46.618;10.764;2024-01-07T11:14:39;91761.16;;;5.21;100.00
57248;BME280;55809;46.618;10.764;2024-01-07T11:17:09;91782.47;;;5.31;100.00
57248;BME280;55809;46.618;10.764;2024-01-07T11:19:49;91721.22;;;4.92;100.00
57248;BME280;55809;46.618;10.764;2024-01-07T11:22:23;91782.03;;;5.40;100.00
57248;BME280;55809;46.618;10.764;2024-01-07T11:24:56;91778.63;;;5.32;100.00
57248;BME280;55809;46.618;10.764;2024-01-07T11:27:23;91777.81;;;5.39;100.00
57248;BME280;55809;46.618;10.764;2024-01-07T11:29:55;91779.72;;;5.42;100.00
57248;BME280;55809;46.618;10.764;2024-01-07T11:32:22;91782.38;;;5.42;100.00
57248;BME280;55809;46.618;10.764;2024-01-07T11:34:51;91779.22;;;5.58;100.00
57248;BME280;55809;46.618;10.764;2024-01-07T11:37:19;91748.81;;;5.34;100.00
57248;BME280;55809;46.618;10.764;2024-01-07T11:39:50;91782.25;;;5.60;100.00
57248;BME280;55809;46.618;10.764;2024-01-07T11:42:26;91773.91;;;5.51;100.00
57248;BME280;55809;46.618;10.764;2024-01-07T11:44:55;91774.22;;;5.60;100.00
57248;BME280;55809;46.618;10.764;2024-01-07T11:47:24;91778.47;;;5.54;100.00
57248;BME280;55809;46.618;10.764;2024-01-07T11:49:54;91770.91;;;5.45;100.00
57248;BME280;55809;46.618;10.764;2024-01-07T11:52:22;91780.31;;;5.64;100.00
57248;BME280;55809;46.618;10.764;2024-01-07T11:54:50;91774.66;;;5.55;100.00
57248;BME280;55809;46.618;10.764;2024-01-07T11:57:18;91776.56;;;5.54;100.00
57248;BME280;55809;46.618;10.764;2024-01-07T11:59:47;91775.38;;;5.59;100.00
57248;BME280;55809;46.618;10.764;2024-01-07T12:02:15;91749.16;;;5.36;100.00
57248;BME280;55809;46.618;10.764;2024-01-07T12:04:44;91772.69;;;5.59;100.00
57248;BME280;55809;46.618;10.764;2024-01-07T12:07:12;91752.47;;;5.54;100.00
57248;BME280;55809;46.618;10.764;2024-01-07T12:09:42;91769.56;;;5.68;100.00
57248;BME280;55809;46.618;10.764;2024-01-07T12:12:09;91778.69;;;5.74;100.00
57248;BME280;55809;46.618;10.764;2024-01-07T12:14:38;91768.03;;;5.70;100.00
57248;BME280;55809;46.618;10.764;2024-01-07T12:17:09;91774.50;;;5.69;100.00
57248;BME280;55809;46.618;10.764;2024-01-07T12:19:43;91757.25;;;5.77;100.00
57248;BME280;55809;46.618;10.764;2024-01-07T12:22:17;91771.28;;;5.88;100.00
57248;BME280;55809;46.618;10.764;2024-01-07T12:25:01;91769.78;;;5.87;100.00
57248;BME280;55809;46.618;10.764;2024-01-07T12:27:35;91771.78;;;5.80;100.00
57248;BME280;55809;46.618;10.764;2024-01-07T12:30:08;91770.97;;;5.83;100.00
57248;BME280;55809;46.618;10.764;2024-01-07T12:32:58;91769.06;;;5.83;100.00
57248;BME280;55809;46.618;10.764;2024-01-07T12:35:45;91775.50;;;5.93;100.00
57248;BME280;55809;46.618;10.764;2024-01-07T12:38:24;91767.06;;;5.91;100.00
57248;BME280;55809;46.618;10.764;2024-01-07T12:41:10;91771.31;;;5.85;100.00
57248;BME280;55809;46.618;10.764;2024-01-07T12:43:44;91752.69;;;5.74;100.00
57248;BME280;55809;46.618;10.764;2024-01-07T12:46:19;91769.09;;;5.80;100.00
57248;BME280;55809;46.618;10.764;2024-01-07T12:49:03;91774.13;;;5.71;100.00
57248;BME280;55809;46.618;10.764;2024-01-07T12:51:42;91766.47;;;5.69;100.00
57248;BME280;55809;46.618;10.764;2024-01-07T12:54:47;91770.31;;;5.68;100.00
57248;BME280;55809;46.618;10.764;2024-01-07T12:57:28;91772.97;;;5.72;100.00
57248;BME280;55809;46.618;10.764;2024-01-07T13:00:17;91774.50;;;5.69;100.00